Time;durP1;ratioP1;P1;durP2;ratioP2;P2;SDS_P1;SDS_P2;PMS_P1;PMS_P2;Temp;Humidity;BMP_temperature;BMP_pressure;BME280_temperature;BME280_humidity;BME280_pressure;Samples;Min_cycle;Max_cycle;Signal;HPM_P1;HPM_P2
2021/10/22 00:01:23;;;;;;;19.52;12.75;;;;;;;;;;5014218;28;20479;-74
2021/10/22 00:03:49;;;;;;;15.98;10.95;;;;;;;;;;5016923;28;20475;-72
2021/10/22 00:06:15;;;;;;;15.57;10.70;;;;;;;;;;5016770;28;20375;-74
2021/10/22 00:09:18;;;;;;;16.00;11.38;;;;;;;;;;5017577;28;20030;-75
2021/10/22 00:11:45;;;;;;;18.13;11.20;;;;;;;;;;5017472;28;20037;-73
2021/10/22 00:14:11;;;;;;;14.82;11.00;;;;;;;;;;5017721;28;20029;-75
2021/10/22 00:16:38;;;;;;;15.95;10.73;;;;;;;;;;5019474;28;20061;-72
2021/10/22 00:19:04;;;;;;;16.52;10.75;;;;;;;;;;5017897;28;20040;-74
2021/10/22 00:21:30;;;;;;;15.32;11.20;;;;;;;;;;5015455;28;20025;-74
2021/10/22 00:23:57;;;;;;;16.25;11.95;;;;;;;;;;5018475;28;20077;-74
2021/10/22 00:26:23;;;;;;;17.70;12.30;;;;;;;;;;5020992;28;20026;-74
2021/10/22 00:28:49;;;;;;;15.57;10.55;;;;;;;;;;5019921;28;20372;-74
2021/10/22 00:31:15;;;;;;;16.88;11.30;;;;;;;;;;5016691;28;20509;-74
2021/10/22 00:33:48;;;;;;;16.10;10.45;;;;;;;;;;5024077;28;20463;-74
2021/10/22 00:36:19;;;;;;;18.27;10.73;;;;;;;;;;4994640;28;20477;-74
2021/10/22 00:41:47;;;;;;;17.10;11.23;;;;;;;;;;4964063;29;20042;-75
2021/10/22 00:44:13;;;;;;;18.10;11.77;;;;;;;;;;4917248;29;20048;-75
2021/10/22 00:46:39;;;;;;;16.13;11.00;;;;;;;;;;4917754;29;20040;-74
2021/10/22 00:49:12;;;;;;;16.65;10.40;;;;;;;;;;4917373;29;20171;-75
2021/10/22 00:51:39;;;;;;;16.80;11.07;;;;;;;;;;4920916;29;20040;-74
2021/10/22 00:54:06;;;;;;;15.60;10.60;;;;;;;;;;4915736;29;20070;-73
2021/10/22 00:56:32;;;;;;;15.88;11.93;;;;;;;;;;4916257;29;20052;-74
2021/10/22 00:58:59;;;;;;;16.98;12.32;;;;;;;;;;4916476;29;20034;-71
2021/10/22 01:01:25;;;;;;;16.45;11.80;;;;;;;;;;4929513;29;20047;-75
2021/10/22 01:03:51;;;;;;;20.55;12.35;;;;;;;;;;4916281;29;20036;-74
2021/10/22 01:06:17;;;;;;;14.65;11.20;;;;;;;;;;4914952;29;20067;-74
2021/10/22 01:08:43;;;;;;;17.15;11.60;;;;;;;;;;4914727;29;20064;-72
2021/10/22 01:11:10;;;;;;;17.33;11.98;;;;;;;;;;4914578;29;20119;-74
2021/10/22 01:14:11;;;;;;;15.20;11.57;;;;;;;;;;4916822;29;20024;-73
2021/10/22 01:16:40;;;;;;;15.98;11.18;;;;;;;;;;4893416;29;20047;-75
2021/10/22 01:19:10;;;;;;;18.80;12.38;;;;;;;;;;4950261;29;20818;-74
2021/10/22 01:21:36;;;;;;;18.10;12.30;;;;;;;;;;4945215;29;20106;-75
2021/10/22 01:24:03;;;;;;;23.25;12.35;;;;;;;;;;4944993;29;20106;-74
2021/10/22 01:26:30;;;;;;;18.33;12.98;;;;;;;;;;4938352;29;20054;-74
2021/10/22 01:28:56;;;;;;;17.00;12.38;;;;;;;;;;4955232;28;20023;-74
2021/10/22 01:31:23;;;;;;;17.67;11.90;;;;;;;;;;4953186;29;20051;-74
2021/10/22 01:33:49;;;;;;;23.13;13.65;;;;;;;;;;4955483;29;20110;-74
2021/10/22 01:36:15;;;;;;;16.35;12.30;;;;;;;;;;4949298;29;20069;-73
2021/10/22 01:38:42;;;;;;;24.25;15.68;;;;;;;;;;4953817;29;20031;-72
2021/10/22 01:41:08;;;;;;;26.30;15.80;;;;;;;;;;4953875;29;20035;-74
2021/10/22 01:43:34;;;;;;;24.35;18.00;;;;;;;;;;4954323;29;20885;-73
2021/10/22 01:46:00;;;;;;;29.05;19.98;;;;;;;;;;4941923;29;20039;-74
2021/10/22 01:48:26;;;;;;;27.42;19.10;;;;;;;;;;4946508;29;20035;-74
2021/10/22 01:50:52;;;;;;;29.75;20.90;;;;;;;;;;4974178;28;20037;-75
2021/10/22 01:53:19;;;;;;;30.58;21.55;;;;;;;;;;5013060;28;20064;-71
2021/10/22 01:55:58;;;;;;;31.33;23.90;;;;;;;;;;5013711;28;20104;-74
2021/10/22 01:58:47;;;;;;;32.08;22.73;;;;;;;;;;5014747;28;20037;-75
2021/10/22 02:01:13;;;;;;;28.48;22.65;;;;;;;;;;4993036;28;20026;-74
2021/10/22 02:03:55;;;;;;;33.70;26.50;;;;;;;;;;5014962;28;20028;-74
2021/10/22 02:06:22;;;;;;;37.97;28.30;;;;;;;;;;5000002;28;20036;-72
2021/10/22 02:08:49;;;;;;;34.47;26.77;;;;;;;;;;5007014;28;20072;-74
2021/10/22 02:11:15;;;;;;;35.47;25.35;;;;;;;;;;5012324;28;20088;-73
2021/10/22 02:13:41;;;;;;;32.95;24.83;;;;;;;;;;5012864;28;20022;-74
2021/10/22 02:16:07;;;;;;;33.53;26.50;;;;;;;;;;5013337;28;20539;-74
2021/10/22 02:18:33;;;;;;;33.05;25.65;;;;;;;;;;5014100;28;20108;-74
2021/10/22 02:20:59;;;;;;;34.72;25.90;;;;;;;;;;5014209;28;20030;-74
2021/10/22 02:23:58;;;;;;;34.58;24.30;;;;;;;;;;5015526;28;20053;-72
2021/10/22 02:26:24;;;;;;;32.25;24.73;;;;;;;;;;4991922;28;20487;-74
2021/10/22 02:28:50;;;;;;;37.03;24.00;;;;;;;;;;5015029;28;20052;-74
2021/10/22 02:31:19;;;;;;;28.70;19.73;;;;;;;;;;5013036;28;20096;-74
2021/10/22 02:33:45;;;;;;;23.48;16.50;;;;;;;;;;5000549;28;20550;-74
2021/10/22 02:36:11;;;;;;;18.50;14.90;;;;;;;;;;5013605;28;20046;-74
2021/10/22 02:38:37;;;;;;;17.98;12.57;;;;;;;;;;5014056;28;20034;-74
2021/10/22 02:41:03;;;;;;;17.77;13.02;;;;;;;;;;5014036;28;20037;-74
2021/10/22 02:43:29;;;;;;;17.95;13.20;;;;;;;;;;5013927;28;20018;-75
2021/10/22 02:45:55;;;;;;;17.92;12.57;;;;;;;;;;5011618;28;20030;-74
2021/10/22 02:48:50;;;;;;;14.73;11.80;;;;;;;;;;5012626;28;20456;-74
2021/10/22 02:51:17;;;;;;;20.02;11.55;;;;;;;;;;4981686;28;20042;-73
2021/10/22 02:53:43;;;;;;;18.63;10.95;;;;;;;;;;5012836;28;20105;-73
2021/10/22 02:56:40;;;;;;;17.95;11.18;;;;;;;;;;5012290;28;20499;-74
2021/10/22 02:59:06;;;;;;;14.35;10.40;;;;;;;;;;5013294;28;20041;-72
2021/10/22 03:01:32;;;;;;;16.85;11.40;;;;;;;;;;5011032;28;20523;-74
2021/10/22 03:03:58;;;;;;;18.63;11.93;;;;;;;;;;5012963;28;20034;-71
2021/10/22 03:06:25;;;;;;;16.63;11.38;;;;;;;;;;5013459;28;20026;-74
2021/10/22 03:09:05;;;;;;;18.15;12.15;;;;;;;;;;5014447;28;20041;-73
2021/10/22 03:12:18;;;;;;;;;;;;;;;;;;;;;
2021/10/22 03:14:40;;;;;;;18.45;11.75;;;;;;;;;;5004226;28;20399;-71
2021/10/22 03:20:15;;;;;;;17.23;11.93;;;;;;;;;;4942965;29;20082;-74
2021/10/22 03:22:42;;;;;;;15.90;10.77;;;;;;;;;;4957917;28;20047;-73
2021/10/22 03:25:11;;;;;;;14.70;10.20;;;;;;;;;;4955713;28;20546;-74
2021/10/22 03:27:38;;;;;;;16.52;10.95;;;;;;;;;;4958230;29;20052;-74
2021/10/22 03:30:05;;;;;;;17.30;11.52;;;;;;;;;;4956433;29;20063;-75
2021/10/22 03:32:33;;;;;;;17.27;11.27;;;;;;;;;;4959244;29;20891;-74
2021/10/22 03:35:00;;;;;;;18.70;11.98;;;;;;;;;;4944122;28;20040;-74
2021/10/22 03:37:26;;;;;;;16.23;11.43;;;;;;;;;;4955322;28;20050;-74
2021/10/22 03:39:52;;;;;;;16.30;10.95;;;;;;;;;;4956250;29;20501;-74
2021/10/22 03:42:18;;;;;;;16.08;11.70;;;;;;;;;;4966631;28;20388;-75
2021/10/22 03:44:44;;;;;;;15.48;12.02;;;;;;;;;;4958381;28;20055;-75
2021/10/22 03:47:11;;;;;;;17.55;11.10;;;;;;;;;;4957888;28;20023;-74
2021/10/22 03:49:38;;;;;;;19.15;11.50;;;;;;;;;;4960680;28;20035;-73
2021/10/22 03:52:04;;;;;;;19.90;11.65;;;;;;;;;;4964090;28;20043;-74
2021/10/22 03:57:41;;;;;;;18.10;12.98;;;;;;;;;;4968060;28;20519;-73
2021/10/22 04:00:08;;;;;;;19.15;13.20;;;;;;;;;;5015259;28;20037;-74
2021/10/22 04:02:34;;;;;;;17.13;12.20;;;;;;;;;;5018153;28;20026;-74
2021/10/22 04:05:03;;;;;;;16.27;11.07;;;;;;;;;;5000139;28;20029;-74
2021/10/22 04:07:29;;;;;;;22.23;12.65;;;;;;;;;;5018100;28;20024;-72
2021/10/22 04:09:55;;;;;;;16.70;11.75;;;;;;;;;;5018596;28;20093;-75
2021/10/22 04:12:21;;;;;;;16.70;11.63;;;;;;;;;;5016230;28;20026;-75
2021/10/22 04:18:43;;;;;;;13.07;9.23;;;;;;;;;;4977743;28;20038;-75
2021/10/22 04:21:07;;;;;;;12.50;7.05;;;;;;;;;;4975821;28;20065;-72
2021/10/22 04:24:13;;;;;;;9.50;6.70;;;;;;;;;;4977606;28;20201;-74
2021/10/22 04:26:51;;;;;;;13.48;7.07;;;;;;;;;;4882474;29;20064;-74
2021/10/22 04:29:18;;;;;;;8.65;6.32;;;;;;;;;;4886153;29;20159;-74
2021/10/22 04:31:44;;;;;;;8.38;6.18;;;;;;;;;;4878763;29;20038;-71
2021/10/22 04:34:10;;;;;;;13.05;6.88;;;;;;;;;;4879700;29;20064;-71
2021/10/22 04:36:38;;;;;;;10.48;6.68;;;;;;;;;;4885178;29;20052;-74
2021/10/22 04:41:52;;;;;;;13.60;8.77;;;;;;;;;;4877473;29;20149;-75
2021/10/22 04:44:18;;;;;;;19.65;12.18;;;;;;;;;;4879154;29;20162;-74
2021/10/22 04:47:11;;;;;;;15.50;9.35;;;;;;;;;;4883606;29;20674;-76
2021/10/22 04:49:43;;;;;;;15.63;9.93;;;;;;;;;;4890666;29;20191;-73
2021/10/22 04:52:18;;;;;;;15.52;9.60;;;;;;;;;;4881038;29;20036;-76
2021/10/22 04:54:46;;;;;;;16.23;9.45;;;;;;;;;;4893547;29;20079;-74
2021/10/22 04:57:12;;;;;;;14.13;8.45;;;;;;;;;;4910278;29;20052;-75
2021/10/22 04:59:40;;;;;;;17.55;10.80;;;;;;;;;;4902948;29;20115;-75
2021/10/22 05:02:06;;;;;;;11.38;6.22;;;;;;;;;;4910264;29;20032;-75
2021/10/22 05:04:32;;;;;;;10.05;6.60;;;;;;;;;;5008478;28;20414;-75
2021/10/22 05:06:58;;;;;;;9.07;6.47;;;;;;;;;;5015872;28;20390;-75
2021/10/22 05:09:24;;;;;;;9.35;6.10;;;;;;;;;;5015840;28;20533;-74
2021/10/22 05:11:50;;;;;;;8.48;5.70;;;;;;;;;;5013576;28;20104;-75
2021/10/22 05:14:16;;;;;;;9.88;6.30;;;;;;;;;;5015405;28;20025;-74
2021/10/22 05:16:43;;;;;;;10.25;5.90;;;;;;;;;;5009592;28;20038;-74
2021/10/22 05:19:09;;;;;;;7.45;5.43;;;;;;;;;;5009941;28;20494;-74
2021/10/22 05:22:03;;;;;;;8.65;5.57;;;;;;;;;;5014831;28;20372;-75
2021/10/22 05:24:29;;;;;;;9.45;5.43;;;;;;;;;;5005033;28;20052;-72
2021/10/22 05:26:55;;;;;;;10.60;5.75;;;;;;;;;;5014572;28;20046;-74
2021/10/22 05:29:22;;;;;;;12.27;6.53;;;;;;;;;;5021586;28;20352;-75
2021/10/22 05:31:51;;;;;;;9.00;5.30;;;;;;;;;;5013691;28;20060;-73
2021/10/22 05:34:20;;;;;;;7.88;4.85;;;;;;;;;;5010825;28;20554;-74
2021/10/22 05:36:46;;;;;;;7.43;5.25;;;;;;;;;;5012829;28;20071;-72
2021/10/22 05:39:15;;;;;;;9.35;6.40;;;;;;;;;;5014109;28;20022;-72
2021/10/22 05:41:41;;;;;;;7.22;5.38;;;;;;;;;;5011482;28;20116;-77
2021/10/22 05:44:07;;;;;;;8.98;6.72;;;;;;;;;;5018056;28;20018;-74
2021/10/22 05:46:35;;;;;;;12.55;7.55;;;;;;;;;;5013698;28;20029;-75
2021/10/22 05:49:02;;;;;;;13.02;6.68;;;;;;;;;;5013812;28;20038;-75
2021/10/22 05:51:28;;;;;;;8.55;6.43;;;;;;;;;;5013014;28;20025;-74
2021/10/22 05:53:57;;;;;;;9.20;6.60;;;;;;;;;;5013657;28;20026;-72
2021/10/22 05:56:23;;;;;;;8.52;6.43;;;;;;;;;;5004692;28;20033;-74
2021/10/22 05:58:49;;;;;;;8.82;6.82;;;;;;;;;;5012048;28;20419;-73
2021/10/22 06:01:15;;;;;;;12.85;7.35;;;;;;;;;;5015528;28;20047;-73
2021/10/22 06:03:41;;;;;;;17.98;9.98;;;;;;;;;;5023166;28;20026;-66
2021/10/22 06:06:07;;;;;;;16.23;9.02;;;;;;;;;;5016433;28;20065;-75
2021/10/22 06:08:33;;;;;;;16.38;9.02;;;;;;;;;;5010060;28;20025;-74
2021/10/22 06:11:00;;;;;;;15.25;8.80;;;;;;;;;;5014352;28;20076;-76
2021/10/22 06:13:26;;;;;;;11.90;8.10;;;;;;;;;;5015701;28;20018;-75
2021/10/22 06:15:52;;;;;;;14.38;8.15;;;;;;;;;;5017868;28;20046;-74
2021/10/22 06:18:19;;;;;;;11.98;7.70;;;;;;;;;;5013404;28;20044;-72
2021/10/22 06:20:56;;;;;;;13.90;7.55;;;;;;;;;;5013065;28;20022;-77
2021/10/22 06:26:07;;;;;;;11.65;6.90;;;;;;;;;;5013159;28;20805;-73
2021/10/22 06:28:33;;;;;;;9.02;6.72;;;;;;;;;;5021795;28;20017;-76
2021/10/22 06:31:02;;;;;;;12.35;6.75;;;;;;;;;;5010390;28;20014;-78
2021/10/22 06:33:28;;;;;;;9.65;6.93;;;;;;;;;;5012844;28;20033;-79
2021/10/22 06:35:54;;;;;;;11.15;8.05;;;;;;;;;;5021276;28;20037;-77
2021/10/22 06:38:24;;;;;;;9.35;7.20;;;;;;;;;;5021430;28;20029;-79
2021/10/22 06:40:53;;;;;;;11.15;6.45;;;;;;;;;;5020904;28;20030;-75
2021/10/22 06:43:20;;;;;;;9.30;5.35;;;;;;;;;;5007006;28;20032;-72
2021/10/22 06:45:53;;;;;;;8.88;5.70;;;;;;;;;;5014493;28;20018;-72
2021/10/22 06:48:19;;;;;;;8.38;4.70;;;;;;;;;;5019014;28;20029;-74
2021/10/22 06:50:46;;;;;;;9.48;5.80;;;;;;;;;;5016274;28;20550;-72
2021/10/22 06:53:12;;;;;;;19.90;12.80;;;;;;;;;;5005928;28;20360;-74
2021/10/22 06:58:37;;;;;;;10.90;6.43;;;;;;;;;;4974563;28;20451;-71
2021/10/22 07:01:04;;;;;;;12.20;5.30;;;;;;;;;;4957892;28;20666;-71
2021/10/22 07:03:38;;;;;;;8.32;4.82;;;;;;;;;;4974100;28;20039;-71
2021/10/22 07:08:53;;;;;;;9.73;5.82;;;;;;;;;;4974519;28;20034;-71
2021/10/22 07:11:19;;;;;;;7.60;4.93;;;;;;;;;;4957484;28;20030;-70
2021/10/22 07:13:51;;;;;;;8.00;4.25;;;;;;;;;;4976498;28;20030;-78
2021/10/22 07:16:33;;;;;;;7.65;4.50;;;;;;;;;;4977246;28;20490;-73
2021/10/22 07:18:59;;;;;;;8.07;4.43;;;;;;;;;;4974280;28;20042;-73
2021/10/22 07:21:29;;;;;;;8.63;5.43;;;;;;;;;;4974793;28;20047;-75
2021/10/22 07:23:57;;;;;;;9.27;4.82;;;;;;;;;;4976236;28;20069;-74
2021/10/22 07:26:23;;;;;;;7.50;4.25;;;;;;;;;;4974244;28;20545;-74
2021/10/22 07:28:49;;;;;;;8.50;4.32;;;;;;;;;;4974190;28;20117;-74
2021/10/22 07:31:25;;;;;;;10.40;5.20;;;;;;;;;;4997583;28;20139;-73
2021/10/22 07:34:05;;;;;;;8.05;4.95;;;;;;;;;;4974175;28;20139;-75
2021/10/22 07:36:37;;;;;;;7.25;4.55;;;;;;;;;;5002895;28;20041;-71
2021/10/22 07:39:04;;;;;;;9.02;5.05;;;;;;;;;;5013712;28;20022;-73
2021/10/22 07:41:30;;;;;;;9.30;5.50;;;;;;;;;;5015327;28;20033;-73
2021/10/22 07:43:56;;;;;;;7.97;4.20;;;;;;;;;;5014607;28;20143;-72
2021/10/22 07:46:22;;;;;;;8.68;4.35;;;;;;;;;;4996438;28;20038;-73
2021/10/22 07:48:48;;;;;;;6.97;3.85;;;;;;;;;;5014664;28;20022;-72
2021/10/22 07:51:15;;;;;;;6.88;4.03;;;;;;;;;;5015323;28;20030;-73
2021/10/22 07:53:41;;;;;;;9.43;3.80;;;;;;;;;;5020399;28;20018;-77
2021/10/22 07:56:32;;;;;;;6.97;3.70;;;;;;;;;;5030034;28;20030;-72
2021/10/22 07:58:59;;;;;;;7.90;4.22;;;;;;;;;;4994707;28;20061;-70
2021/10/22 08:01:31;;;;;;;7.95;4.70;;;;;;;;;;5003531;28;20045;-71
2021/10/22 08:03:57;;;;;;;8.45;4.30;;;;;;;;;;5014421;28;20368;-72
2021/10/22 08:06:23;;;;;;;6.93;4.10;;;;;;;;;;5014335;28;20026;-73
2021/10/22 08:09:15;;;;;;;13.15;6.05;;;;;;;;;;5014148;28;20026;-72
2021/10/22 08:11:42;;;;;;;9.57;5.57;;;;;;;;;;4998933;28;20048;-74
2021/10/22 08:14:10;;;;;;;8.90;4.80;;;;;;;;;;5025393;28;20076;-71
2021/10/22 08:16:37;;;;;;;9.60;4.60;;;;;;;;;;5111393;23;20161;-72
2021/10/22 08:19:03;;;;;;;6.40;4.13;;;;;;;;;;5007898;28;20038;-73
2021/10/22 08:27:25;;;;;;;7.60;4.70;;;;;;;;;;4944767;29;20119;-71
2021/10/22 08:29:54;;;;;;;12.20;5.95;;;;;;;;;;4941244;29;20043;-71
2021/10/22 08:32:21;;;;;;;18.02;11.43;;;;;;;;;;4930511;29;20428;-73
2021/10/22 08:34:56;;;;;;;12.05;9.02;;;;;;;;;;4948605;29;20055;-71
2021/10/22 08:37:23;;;;;;;12.32;6.10;;;;;;;;;;4921716;29;20059;-71
2021/10/22 08:39:52;;;;;;;9.68;6.10;;;;;;;;;;4931433;29;20397;-73
2021/10/22 08:42:21;;;;;;;13.50;8.13;;;;;;;;;;4939738;29;20066;-72
2021/10/22 08:44:47;;;;;;;12.60;7.50;;;;;;;;;;4941185;29;20082;-70
2021/10/22 08:47:29;;;;;;;11.65;8.77;;;;;;;;;;4936156;29;20461;-70
2021/10/22 08:50:09;;;;;;;13.45;9.38;;;;;;;;;;4944158;29;20086;-73
2021/10/22 08:52:37;;;;;;;10.13;7.03;;;;;;;;;;4942816;29;20034;-71
2021/10/22 08:55:09;;;;;;;10.57;6.72;;;;;;;;;;4939860;29;20068;-74
2021/10/22 08:57:39;;;;;;;12.57;6.03;;;;;;;;;;4940404;29;20485;-76
2021/10/22 09:00:06;;;;;;;8.63;5.30;;;;;;;;;;4949013;29;20512;-68
2021/10/22 09:02:32;;;;;;;8.40;5.32;;;;;;;;;;4949379;28;20028;-74
2021/10/22 09:05:01;;;;;;;8.38;5.75;;;;;;;;;;5014987;28;20083;-72
2021/10/22 09:07:43;;;;;;;9.10;6.22;;;;;;;;;;5015088;28;20026;-75
2021/10/22 09:10:13;;;;;;;11.43;6.55;;;;;;;;;;5009572;28;20033;-72
2021/10/22 09:12:41;;;;;;;10.68;6.47;;;;;;;;;;5013271;28;20141;-73
2021/10/22 09:15:08;;;;;;;11.48;6.47;;;;;;;;;;5013204;28;20104;-71
2021/10/22 09:17:38;;;;;;;11.98;5.50;;;;;;;;;;5008787;28;20530;-72
2021/10/22 09:20:05;;;;;;;10.68;6.55;;;;;;;;;;5013495;28;20449;-73
2021/10/22 09:22:35;;;;;;;10.23;6.15;;;;;;;;;;5013558;28;20048;-73
2021/10/22 09:25:07;;;;;;;9.07;6.00;;;;;;;;;;5013026;28;20411;-72
2021/10/22 09:27:35;;;;;;;10.27;5.97;;;;;;;;;;5013510;28;20022;-73
2021/10/22 09:30:01;;;;;;;9.13;5.18;;;;;;;;;;5013235;28;20033;-73
2021/10/22 09:32:27;;;;;;;9.48;5.70;;;;;;;;;;5013725;28;20131;-73
2021/10/22 09:34:53;;;;;;;10.68;5.93;;;;;;;;;;5012674;28;20026;-72
2021/10/22 09:37:19;;;;;;;10.20;5.82;;;;;;;;;;5012976;28;20030;-73
2021/10/22 09:39:46;;;;;;;8.88;6.70;;;;;;;;;;5011590;28;20108;-70
2021/10/22 09:42:15;;;;;;;12.15;6.28;;;;;;;;;;5011509;28;20450;-71
2021/10/22 09:44:42;;;;;;;8.48;5.82;;;;;;;;;;5013214;28;20825;-72
2021/10/22 09:47:08;;;;;;;8.65;6.03;;;;;;;;;;5012657;28;20034;-73
2021/10/22 09:49:35;;;;;;;10.77;5.32;;;;;;;;;;5013675;28;20024;-73
2021/10/22 09:52:03;;;;;;;8.63;5.15;;;;;;;;;;5012774;28;20033;-70
2021/10/22 09:54:30;;;;;;;8.32;5.22;;;;;;;;;;5012674;28;20048;-73
2021/10/22 09:56:57;;;;;;;7.63;5.00;;;;;;;;;;5012470;28;20060;-71
2021/10/22 09:59:26;;;;;;;8.80;5.18;;;;;;;;;;5009270;28;20018;-70
2021/10/22 10:01:54;;;;;;;8.15;5.68;;;;;;;;;;5011647;28;20036;-72
2021/10/22 10:04:24;;;;;;;9.35;5.70;;;;;;;;;;5012469;28;20802;-73
2021/10/22 10:06:51;;;;;;;8.65;5.82;;;;;;;;;;5012877;28;20049;-70
2021/10/22 10:09:18;;;;;;;8.35;5.22;;;;;;;;;;5012195;28;20454;-73
2021/10/22 10:11:44;;;;;;;7.63;5.55;;;;;;;;;;5012684;28;20041;-73
2021/10/22 10:14:14;;;;;;;8.27;5.53;;;;;;;;;;5012392;28;20104;-73
2021/10/22 10:16:41;;;;;;;9.15;5.80;;;;;;;;;;5012390;28;20200;-73
2021/10/22 10:19:07;;;;;;;11.07;6.20;;;;;;;;;;5011220;28;20442;-69
2021/10/22 10:21:44;;;;;;;10.70;5.75;;;;;;;;;;5011032;28;20104;-72
2021/10/22 10:24:12;;;;;;;10.32;5.25;;;;;;;;;;5012810;28;20022;-73
2021/10/22 10:26:40;;;;;;;8.13;5.22;;;;;;;;;;5011949;28;20080;-73
2021/10/22 10:29:08;;;;;;;7.78;6.15;;;;;;;;;;5012235;28;20033;-71
2021/10/22 10:31:34;;;;;;;13.15;7.07;;;;;;;;;;5012645;28;20040;-72
2021/10/22 10:34:01;;;;;;;8.07;5.78;;;;;;;;;;5012272;28;20028;-73
2021/10/22 10:36:50;;;;;;;12.85;6.68;;;;;;;;;;5012684;28;20126;-73
2021/10/22 10:39:36;;;;;;;23.42;15.27;;;;;;;;;;5011502;28;20378;-73
2021/10/22 10:42:21;;;;;;;24.33;14.40;;;;;;;;;;5011805;28;20041;-73
2021/10/22 10:44:48;;;;;;;14.25;10.35;;;;;;;;;;5012368;28;20414;-73
2021/10/22 10:47:34;;;;;;;10.80;8.30;;;;;;;;;;5017933;28;20052;-72
2021/10/22 10:50:04;;;;;;;12.02;8.13;;;;;;;;;;5000025;28;20033;-71
2021/10/22 10:52:42;;;;;;;12.63;9.20;;;;;;;;;;5016685;28;20117;-73
2021/10/22 10:55:25;;;;;;;13.55;9.10;;;;;;;;;;5016892;28;20025;-72
2021/10/22 10:57:53;;;;;;;13.80;8.90;;;;;;;;;;4998332;28;20403;-72
2021/10/22 11:00:21;;;;;;;14.07;10.48;;;;;;;;;;5015361;28;20017;-72
2021/10/22 11:03:05;;;;;;;13.30;9.75;;;;;;;;;;5012235;28;20018;-73
2021/10/22 11:08:28;;;;;;;14.70;11.52;;;;;;;;;;5011758;28;20045;-73
2021/10/22 11:10:56;;;;;;;12.27;8.98;;;;;;;;;;5012085;28;20068;-72
2021/10/22 11:13:23;;;;;;;12.60;8.75;;;;;;;;;;5011283;28;20112;-69
2021/10/22 11:15:50;;;;;;;12.55;8.75;;;;;;;;;;5008322;28;20073;-72
2021/10/22 11:18:19;;;;;;;11.07;8.50;;;;;;;;;;5011382;28;20081;-73
2021/10/22 11:20:48;;;;;;;10.57;8.25;;;;;;;;;;5012858;28;20014;-73
2021/10/22 11:23:14;;;;;;;15.32;9.68;;;;;;;;;;5018141;28;20377;-72
2021/10/22 11:25:43;;;;;;;12.98;10.50;;;;;;;;;;5012406;28;20022;-73
2021/10/22 11:28:12;;;;;;;13.95;11.35;;;;;;;;;;5011210;28;20030;-71
2021/10/22 11:30:53;;;;;;;13.57;9.35;;;;;;;;;;5012272;28;20026;-73
2021/10/22 11:33:20;;;;;;;18.55;9.27;;;;;;;;;;5013026;28;20025;-73
2021/10/22 11:35:52;;;;;;;15.43;10.93;;;;;;;;;;5016343;28;20018;-72
2021/10/22 11:38:26;;;;;;;13.45;11.15;;;;;;;;;;4999814;28;20038;-73
2021/10/22 11:40:53;;;;;;;16.35;11.85;;;;;;;;;;5015249;28;20044;-73
2021/10/22 11:43:20;;;;;;;15.05;11.98;;;;;;;;;;5015464;28;20033;-72
2021/10/22 11:45:51;;;;;;;17.70;12.52;;;;;;;;;;5015510;28;20026;-73
2021/10/22 11:48:30;;;;;;;11.52;9.60;;;;;;;;;;5015320;28;20036;-73
2021/10/22 11:50:57;;;;;;;11.90;8.68;;;;;;;;;;5015412;28;20050;-72
2021/10/22 11:53:25;;;;;;;12.63;10.30;;;;;;;;;;5016947;28;20034;-73
2021/10/22 11:56:01;;;;;;;14.23;9.23;;;;;;;;;;5014986;28;20080;-73
2021/10/22 11:58:32;;;;;;;12.85;9.65;;;;;;;;;;5015092;28;20060;-73
2021/10/22 12:00:59;;;;;;;12.77;8.80;;;;;;;;;;5014689;28;20025;-73
2021/10/22 12:03:26;;;;;;;13.50;9.00;;;;;;;;;;5015259;28;20053;-73
2021/10/22 12:05:54;;;;;;;13.18;8.80;;;;;;;;;;5014933;28;20033;-73
2021/10/22 12:08:21;;;;;;;11.13;8.27;;;;;;;;;;5010559;28;20424;-70
2021/10/22 12:10:50;;;;;;;12.68;8.82;;;;;;;;;;5014628;28;20076;-70
2021/10/22 12:13:26;;;;;;;10.15;8.35;;;;;;;;;;5014313;28;20100;-71
2021/10/22 12:15:52;;;;;;;12.32;9.07;;;;;;;;;;5015031;28;20495;-73
2021/10/22 12:18:19;;;;;;;22.10;14.35;;;;;;;;;;5014353;28;20042;-73
2021/10/22 12:20:45;;;;;;;14.35;10.63;;;;;;;;;;5015189;28;20105;-72
2021/10/22 12:23:13;;;;;;;11.82;9.02;;;;;;;;;;5013914;28;20025;-72
2021/10/22 12:25:42;;;;;;;13.18;8.52;;;;;;;;;;5015638;28;20026;-73
2021/10/22 12:28:17;;;;;;;12.77;9.07;;;;;;;;;;5016710;28;20368;-73
2021/10/22 12:30:46;;;;;;;15.75;10.43;;;;;;;;;;5014872;28;20036;-73
2021/10/22 12:33:13;;;;;;;46.42;26.13;;;;;;;;;;5014549;28;20045;-73
2021/10/22 12:35:46;;;;;;;47.28;25.63;;;;;;;;;;5015075;28;20032;-73
2021/10/22 12:38:18;;;;;;;51.65;25.92;;;;;;;;;;5014599;28;20030;-72
2021/10/22 12:40:46;;;;;;;24.88;15.90;;;;;;;;;;5014252;28;20029;-73
2021/10/22 12:43:27;;;;;;;20.85;15.35;;;;;;;;;;5013268;28;20051;-73
2021/10/22 12:46:19;;;;;;;33.90;26.88;;;;;;;;;;5014032;28;20037;-72
2021/10/22 12:48:51;;;;;;;40.05;30.52;;;;;;;;;;4915658;29;20402;-72
2021/10/22 12:51:22;;;;;;;47.25;33.67;;;;;;;;;;4915469;29;20036;-73
2021/10/22 12:53:50;;;;;;;35.25;28.27;;;;;;;;;;4916145;29;20050;-73
2021/10/22 12:56:37;;;;;;;33.75;24.40;;;;;;;;;;4916149;29;20052;-73
2021/10/22 12:59:06;;;;;;;27.65;20.88;;;;;;;;;;4916984;29;20074;-73
2021/10/22 13:01:36;;;;;;;29.67;21.25;;;;;;;;;;4915024;29;20028;-72
2021/10/22 13:04:12;;;;;;;25.50;18.67;;;;;;;;;;4914600;29;20091;-73
2021/10/22 13:06:45;;;;;;;20.85;15.75;;;;;;;;;;4915667;29;20042;-73
2021/10/22 13:23:10;;;;;;;19.63;13.68;;;;;;;;;;4898861;29;20070;-73
2021/10/22 13:25:38;;;;;;;21.30;15.35;;;;;;;;;;4922322;29;20393;-73
2021/10/22 13:28:04;;;;;;;18.17;14.13;;;;;;;;;;4940202;29;20034;-73
2021/10/22 13:30:35;;;;;;;22.58;16.40;;;;;;;;;;4945880;29;20532;-73
2021/10/22 13:33:05;;;;;;;26.25;18.52;;;;;;;;;;4944590;29;20043;-71
2021/10/22 13:35:32;;;;;;;37.67;24.98;;;;;;;;;;4952982;29;20035;-70
2021/10/22 13:37:58;;;;;;;31.92;22.55;;;;;;;;;;4936250;29;20040;-71
2021/10/22 13:40:25;;;;;;;30.63;20.55;;;;;;;;;;4934400;29;20036;-71
2021/10/22 13:42:51;;;;;;;30.17;21.15;;;;;;;;;;4950018;29;20090;-70
2021/10/22 13:45:17;;;;;;;31.08;22.63;;;;;;;;;;4931512;29;20051;-76
2021/10/22 13:47:50;;;;;;;69.30;48.20;;;;;;;;;;4948354;29;20028;-72
2021/10/22 13:50:19;;;;;;;28.98;21.77;;;;;;;;;;4939275;29;20055;-70
2021/10/22 13:52:45;;;;;;;27.05;20.95;;;;;;;;;;4933079;29;20069;-68
2021/10/22 13:55:11;;;;;;;28.55;21.73;;;;;;;;;;4931660;29;20028;-70
2021/10/22 13:57:40;;;;;;;36.92;29.98;;;;;;;;;;4943502;28;20046;-79
2021/10/22 14:00:12;;;;;;;25.70;19.70;;;;;;;;;;5011933;28;20026;-69
2021/10/22 14:02:41;;;;;;;25.08;17.70;;;;;;;;;;5027458;28;20045;-78
2021/10/22 14:05:08;;;;;;;22.13;18.42;;;;;;;;;;5006487;28;20025;-77
2021/10/22 14:07:34;;;;;;;23.38;19.40;;;;;;;;;;5024154;28;20017;-76
2021/10/22 14:10:00;;;;;;;22.70;17.30;;;;;;;;;;5012245;28;20100;-72
2021/10/22 14:12:42;;;;;;;22.52;17.55;;;;;;;;;;5012077;28;20499;-77
2021/10/22 14:33:58;;;;;;;20.70;16.48;;;;;;;;;;5772907;23;20018;-76
2021/10/22 14:36:28;;;;;;;13.90;12.45;;;;;;;;;;5062373;28;20044;-73
2021/10/22 14:39:06;;;;;;;13.75;11.15;;;;;;;;;;5029110;28;20074;-75
2021/10/22 14:44:32;;;;;;;15.80;12.60;;;;;;;;;;5011602;28;20393;-74
2021/10/22 14:47:17;;;;;;;17.48;13.13;;;;;;;;;;5046133;28;20034;-73
2021/10/22 14:49:47;;;;;;;23.67;14.45;;;;;;;;;;5039832;28;20174;-74
2021/10/22 14:52:26;;;;;;;19.83;14.18;;;;;;;;;;5048660;28;20109;-76
2021/10/22 14:55:10;;;;;;;19.77;14.98;;;;;;;;;;5048815;28;20025;-75
2021/10/22 14:57:42;;;;;;;24.05;16.00;;;;;;;;;;5038662;28;20049;-73
2021/10/22 15:00:20;;;;;;;28.45;20.15;;;;;;;;;;5045925;28;20048;-79
2021/10/22 15:02:50;;;;;;;32.03;21.90;;;;;;;;;;5047910;28;20026;-76
2021/10/22 15:05:17;;;;;;;25.55;20.00;;;;;;;;;;5056488;28;20033;-77
2021/10/22 15:07:43;;;;;;;23.35;17.77;;;;;;;;;;5032633;28;20025;-74
2021/10/22 15:10:10;;;;;;;22.48;18.75;;;;;;;;;;5046780;28;20026;-72
2021/10/22 15:12:39;;;;;;;23.08;18.85;;;;;;;;;;5050359;28;20052;-72
2021/10/22 15:15:06;;;;;;;28.05;22.30;;;;;;;;;;5048212;28;20037;-72
2021/10/22 15:17:32;;;;;;;43.22;25.45;;;;;;;;;;5054848;28;20025;-74
2021/10/22 15:19:59;;;;;;;37.83;30.25;;;;;;;;;;5048749;28;20017;-73
2021/10/22 15:22:25;;;;;;;41.15;33.70;;;;;;;;;;5044937;28;20071;-72
2021/10/22 15:24:56;;;;;;;54.80;43.88;;;;;;;;;;5048957;28;20021;-74
2021/10/22 15:27:22;;;;;;;68.38;53.17;;;;;;;;;;5032087;28;20047;-75
2021/10/22 15:29:57;;;;;;;71.97;54.67;;;;;;;;;;5035173;28;20076;-73
2021/10/22 15:32:23;;;;;;;46.20;37.10;;;;;;;;;;5016454;28;20026;-74
2021/10/22 15:34:50;;;;;;;51.47;40.67;;;;;;;;;;5016521;28;20083;-73
2021/10/22 15:37:16;;;;;;;59.47;49.13;;;;;;;;;;5033330;28;20478;-72
2021/10/22 15:39:43;;;;;;;57.40;50.50;;;;;;;;;;5036902;28;20048;-71
2021/10/22 15:42:09;;;;;;;67.72;53.22;;;;;;;;;;5035233;28;20029;-74
2021/10/22 15:44:35;;;;;;;66.35;47.38;;;;;;;;;;5035137;28;20029;-72
2021/10/22 15:51:02;;;;;;;54.85;41.22;;;;;;;;;;4974061;28;20201;-74
2021/10/22 15:53:28;;;;;;;64.65;51.33;;;;;;;;;;4907376;29;20063;-73